Time;durP1;ratioP1;P1;durP2;ratioP2;P2;SDS_P1;SDS_P2;PMS_P1;PMS_P2;Temp;Humidity;BMP_temperature;BMP_pressure;BME280_temperature;BME280_humidity;BME280_pressure;Samples;Min_cycle;Max_cycle;Signal;HPM_P1;HPM_P2
2021/12/19 00:01:31;;;;;;;10.30;4.88;;;7.60;99.90;;;;;;4971280;28;20676;-65
2021/12/19 00:09:11;;;;;;;10.20;4.93;;;7.60;99.90;;;;;;4978181;28;20041;-65
2021/12/19 00:11:37;;;;;;;11.57;4.35;;;7.60;99.90;;;;;;4980824;28;20041;-65
2021/12/19 00:14:03;;;;;;;8.65;4.05;;;7.60;99.90;;;;;;4982312;28;20568;-64
2021/12/19 00:16:29;;;;;;;10.65;4.53;;;7.50;99.90;;;;;;4985777;28;20283;-64
2021/12/19 00:18:55;;;;;;;9.32;4.28;;;7.50;99.90;;;;;;4985281;28;20212;-64
2021/12/19 00:21:22;;;;;;;6.65;3.28;;;7.50;99.90;;;;;;4968605;28;20116;-64
2021/12/19 00:23:50;;;;;;;7.28;2.60;;;7.50;99.90;;;;;;4983895;28;20046;-64
2021/12/19 00:26:17;;;;;;;6.28;2.33;;;7.50;99.90;;;;;;4984640;28;20076;-64
2021/12/19 00:28:44;;;;;;;7.15;2.25;;;7.60;99.90;;;;;;4989913;28;20041;-64
2021/12/19 00:31:10;;;;;;;6.07;1.95;;;7.50;99.90;;;;;;4966627;28;20493;-64
2021/12/19 00:33:37;;;;;;;5.60;2.05;;;7.60;99.90;;;;;;4988888;28;20073;-64
2021/12/19 00:36:04;;;;;;;4.10;2.17;;;7.50;99.90;;;;;;4986364;28;20073;-64
2021/12/19 00:38:31;;;;;;;4.07;1.77;;;7.50;99.90;;;;;;4970394;28;20065;-64
2021/12/19 00:40:57;;;;;;;7.13;2.25;;;7.50;99.90;;;;;;4980417;28;20041;-65
2021/12/19 00:43:47;;;;;;;5.03;2.25;;;7.50;99.90;;;;;;4980472;28;20038;-63
2021/12/19 00:46:11;;;;;;;9.73;3.08;;;7.50;99.90;;;;;;4974344;28;20429;-65
2021/12/19 00:48:46;;;;;;;7.05;2.47;;;7.50;99.90;;;;;;4980638;28;20052;-64
2021/12/19 00:51:14;;;;;;;7.07;2.22;;;7.50;99.90;;;;;;4993197;28;20095;-64
2021/12/19 00:53:42;;;;;;;6.03;2.35;;;7.50;99.90;;;;;;4978088;28;20045;-64
2021/12/19 00:56:08;;;;;;;5.13;2.40;;;7.50;99.90;;;;;;4984049;28;20527;-64
2021/12/19 00:58:34;;;;;;;7.90;2.40;;;7.50;99.90;;;;;;4976243;28;20045;-64
2021/12/19 01:01:02;;;;;;;5.57;2.15;;;7.50;99.90;;;;;;4977045;28;20034;-64
2021/12/19 01:03:28;;;;;;;6.32;2.28;;;7.50;99.90;;;;;;4977680;28;20405;-64
2021/12/19 01:05:54;;;;;;;9.18;2.13;;;7.50;99.90;;;;;;4979191;28;20034;-64
2021/12/19 01:08:20;;;;;;;3.75;1.85;;;7.50;99.90;;;;;;4992003;28;20121;-64
2021/12/19 01:10:47;;;;;;;5.00;2.25;;;7.50;99.90;;;;;;4991361;28;20038;-65
2021/12/19 01:13:14;;;;;;;5.88;2.13;;;7.50;99.90;;;;;;4977252;28;20045;-65
2021/12/19 01:15:41;;;;;;;5.40;1.75;;;7.50;99.90;;;;;;4978693;28;20069;-63
2021/12/19 01:18:07;;;;;;;6.18;2.05;;;7.50;99.90;;;;;;4986011;28;20061;-65
2021/12/19 01:20:36;;;;;;;5.85;2.03;;;7.50;99.90;;;;;;4964956;28;20038;-65
2021/12/19 01:23:03;;;;;;;5.53;1.98;;;7.50;99.90;;;;;;4983499;28;20037;-63
2021/12/19 01:28:01;;;;;;;6.18;3.10;;;7.50;99.90;;;;;;5011572;28;20049;-58
2021/12/19 01:30:27;;;;;;;7.57;2.85;;;7.50;99.90;;;;;;4970644;28;20087;-57
2021/12/19 01:32:53;;;;;;;6.13;2.33;;;7.50;99.90;;;;;;4999541;28;20037;-58
2021/12/19 01:35:21;;;;;;;6.07;2.60;;;7.50;99.90;;;;;;5004510;28;20100;-59
2021/12/19 01:37:47;;;;;;;4.75;2.28;;;7.50;99.90;;;;;;5003046;28;20354;-57
2021/12/19 01:40:15;;;;;;;5.47;2.25;;;7.50;99.90;;;;;;5016383;28;20040;-58
2021/12/19 01:42:42;;;;;;;9.57;2.20;;;7.50;99.90;;;;;;4999366;28;20096;-59
2021/12/19 01:45:11;;;;;;;4.85;1.95;;;7.50;99.90;;;;;;5003461;28;20598;-59
2021/12/19 01:47:37;;;;;;;3.75;1.77;;;7.50;99.90;;;;;;5005583;28;20139;-59
2021/12/19 01:50:05;;;;;;;4.25;1.20;;;7.50;99.90;;;;;;5000261;28;20369;-58
2021/12/19 01:52:30;;;;;;;5.82;1.70;;;7.50;99.90;;;;;;5002931;28;20037;-59
2021/12/19 01:54:57;;;;;;;6.28;1.67;;;7.50;99.90;;;;;;4985849;28;20041;-59
2021/12/19 01:57:25;;;;;;;5.00;1.80;;;7.50;99.90;;;;;;4994191;28;21548;-59
2021/12/19 01:59:52;;;;;;;5.68;2.08;;;7.50;99.90;;;;;;5000470;28;20048;-59
2021/12/19 02:02:18;;;;;;;3.33;1.95;;;7.50;99.90;;;;;;4997227;28;20073;-59
2021/12/19 02:04:44;;;;;;;4.43;1.85;;;7.40;99.90;;;;;;4997726;28;20094;-57
2021/12/19 02:07:12;;;;;;;5.25;1.50;;;7.40;99.90;;;;;;5002873;28;20053;-58
2021/12/19 02:09:38;;;;;;;6.10;2.05;;;7.40;99.90;;;;;;5015057;28;20045;-59
2021/12/19 02:12:04;;;;;;;4.65;2.00;;;7.50;99.90;;;;;;4991737;28;20400;-59
2021/12/19 02:14:30;;;;;;;4.35;1.80;;;7.50;99.90;;;;;;5020128;28;20033;-58
2021/12/19 02:16:56;;;;;;;2.70;1.63;;;7.50;99.90;;;;;;5014981;28;20042;-58
2021/12/19 02:19:24;;;;;;;4.53;1.50;;;7.40;99.90;;;;;;4987915;28;20060;-58
2021/12/19 02:21:51;;;;;;;3.45;1.27;;;7.40;99.90;;;;;;4982082;28;20041;-58
2021/12/19 02:24:16;;;;;;;4.32;1.00;;;7.40;99.90;;;;;;5028291;28;20044;-59
2021/12/19 02:26:43;;;;;;;4.97;1.08;;;7.40;99.90;;;;;;4989023;28;20038;-57
2021/12/19 02:29:10;;;;;;;2.72;1.05;;;7.40;99.90;;;;;;5008728;28;20112;-57
2021/12/19 02:31:38;;;;;;;2.45;0.80;;;7.40;99.90;;;;;;4990630;28;20054;-57
2021/12/19 02:34:10;;;;;;;2.38;0.90;;;7.40;99.90;;;;;;5008221;28;20042;-58
2021/12/19 02:50:13;;;;;;;3.58;1.45;;;7.30;99.90;;;;;;5003850;28;20092;-57
2021/12/19 02:52:39;;;;;;;4.25;1.45;;;7.20;99.90;;;;;;5022770;28;20052;-59
2021/12/19 02:55:07;;;;;;;5.43;1.63;;;7.20;99.90;;;;;;4987644;28;20042;-57
2021/12/19 02:57:33;;;;;;;4.82;1.60;;;7.10;99.90;;;;;;5022306;28;20512;-57
2021/12/19 02:59:58;;;;;;;5.10;2.60;;;7.20;99.90;;;;;;4996030;28;20033;-58
2021/12/19 03:02:24;;;;;;;8.18;2.40;;;7.20;99.90;;;;;;5000548;28;20540;-57
2021/12/19 03:04:58;;;;;;;8.98;3.05;;;7.20;99.90;;;;;;5002125;28;20049;-59
2021/12/19 03:07:25;;;;;;;7.10;2.88;;;7.10;99.90;;;;;;5002048;28;20124;-57
2021/12/19 03:12:59;;;;;;;8.02;2.92;;;7.10;99.90;;;;;;5000356;28;20204;-58
2021/12/19 03:18:10;;;;;;;;;;;7.20;99.90;;;;;;5000778;28;20054;-57
2021/12/19 03:20:37;;;;;;;4.80;1.50;;;7.20;99.90;;;;;;5006659;28;20043;-59
2021/12/19 03:23:04;;;;;;;4.35;1.55;;;7.20;99.90;;;;;;4996354;28;20061;-57
2021/12/19 03:25:31;;;;;;;5.28;1.50;;;7.20;99.90;;;;;;4998902;28;20047;-58
2021/12/19 03:27:58;;;;;;;5.22;1.75;;;7.20;99.90;;;;;;5024885;28;20128;-58
2021/12/19 03:30:25;;;;;;;3.10;1.13;;;7.20;99.90;;;;;;4985275;28;20103;-59
2021/12/19 03:32:50;;;;;;;2.95;1.05;;;7.10;99.90;;;;;;4999324;28;20515;-57
2021/12/19 03:35:16;;;;;;;6.45;1.70;;;7.10;99.90;;;;;;4985417;28;20046;-58
2021/12/19 03:37:43;;;;;;;2.70;1.00;;;7.10;99.90;;;;;;5009587;28;20080;-58
2021/12/19 03:40:12;;;;;;;2.67;0.80;;;7.10;99.90;;;;;;4999479;28;20117;-58
2021/12/19 03:42:43;;;;;;;3.95;1.38;;;7.10;99.90;;;;;;5005513;28;20073;-56
2021/12/19 03:45:12;;;;;;;5.30;1.60;;;7.10;99.90;;;;;;5007890;28;20111;-58
2021/12/19 03:47:39;;;;;;;8.65;2.22;;;7.10;99.90;;;;;;5018354;28;20538;-58
2021/12/19 03:50:07;;;;;;;6.97;2.25;;;7.10;99.90;;;;;;5006618;28;20045;-58
2021/12/19 03:52:33;;;;;;;7.85;2.33;;;7.10;99.90;;;;;;5002627;28;20037;-57
2021/12/19 03:54:59;;;;;;;7.30;2.15;;;7.20;99.90;;;;;;5018362;28;21181;-58
2021/12/19 03:57:25;;;;;;;5.88;2.03;;;7.20;99.90;;;;;;4988092;28;20410;-58
2021/12/19 03:59:51;;;;;;;6.97;2.20;;;7.20;99.90;;;;;;4986687;28;20033;-59
2021/12/19 04:02:28;;;;;;;5.57;2.30;;;7.20;99.90;;;;;;4989838;28;20141;-57
2021/12/19 04:04:56;;;;;;;4.88;1.90;;;7.20;99.90;;;;;;5005944;28;20517;-58
2021/12/19 04:07:23;;;;;;;6.55;1.85;;;7.20;99.90;;;;;;4986620;28;20095;-57
2021/12/19 04:09:49;;;;;;;7.45;2.55;;;7.20;99.90;;;;;;5006329;28;20063;-56
2021/12/19 04:12:15;;;;;;;9.13;1.98;;;7.20;99.90;;;;;;4983319;28;20048;-55
2021/12/19 04:14:41;;;;;;;7.22;1.90;;;7.20;99.90;;;;;;5001680;28;20132;-56
2021/12/19 04:17:07;;;;;;;7.63;1.95;;;7.20;99.90;;;;;;5014839;28;20115;-55
2021/12/19 04:19:33;;;;;;;7.63;2.10;;;7.20;99.90;;;;;;4969663;28;20043;-56
2021/12/19 04:21:59;;;;;;;14.50;3.35;;;7.20;99.90;;;;;;4986401;28;20038;-57
2021/12/19 04:24:26;;;;;;;9.30;2.33;;;7.20;99.90;;;;;;4986476;28;20107;-57
2021/12/19 04:26:53;;;;;;;9.70;2.72;;;7.30;99.90;;;;;;5006655;28;21862;-58
2021/12/19 04:29:19;;;;;;;6.65;2.30;;;7.30;99.90;;;;;;5001252;28;20358;-58
2021/12/19 04:31:45;;;;;;;7.53;3.00;;;7.20;99.90;;;;;;4991877;28;20060;-55
2021/12/19 04:34:13;;;;;;;9.23;2.75;;;7.20;99.90;;;;;;5007863;28;20465;-58
2021/12/19 04:36:42;;;;;;;12.20;3.00;;;7.20;99.90;;;;;;5001050;28;20467;-57
2021/12/19 04:57:26;;;;;;;18.65;5.50;;;7.40;99.90;;;;;;5002654;28;20099;-58
2021/12/19 04:59:56;;;;;;;27.42;6.95;;;7.40;99.90;;;;;;5001256;28;20437;-58
2021/12/19 05:16:01;;;;;;;21.65;5.97;;;7.50;99.90;;;;;;4996442;28;20037;-56
2021/12/19 05:18:30;;;;;;;14.48;5.57;;;7.40;99.90;;;;;;5005629;28;20041;-58
2021/12/19 05:21:00;;;;;;;19.95;6.95;;;7.40;99.90;;;;;;5000935;28;20069;-57
2021/12/19 05:23:51;;;;;;;20.33;7.18;;;7.50;99.90;;;;;;4994229;28;20030;-56
2021/12/19 05:26:14;;;;;;;22.15;7.20;;;7.50;99.90;;;;;;5012265;28;20068;-58
2021/12/19 05:28:40;;;;;;;21.52;8.95;;;7.50;99.90;;;;;;4989446;28;20053;-58
2021/12/19 05:31:06;;;;;;;26.02;9.10;;;7.40;99.90;;;;;;5004189;28;20038;-56
2021/12/19 05:33:32;;;;;;;19.63;8.77;;;7.50;99.90;;;;;;5006351;28;20057;-57
2021/12/19 05:46:35;;;;;;;31.02;9.85;;;7.50;99.90;;;;;;4976793;28;21512;-58
2021/12/19 05:49:03;;;;;;;28.63;11.18;;;7.30;99.90;;;;;;4991280;28;20132;-58
2021/12/19 05:51:29;;;;;;;27.10;10.77;;;7.50;99.90;;;;;;4991006;28;20045;-58
2021/12/19 05:53:54;;;;;;;24.52;9.77;;;7.50;99.90;;;;;;4982294;28;20037;-57
2021/12/19 05:56:20;;;;;;;30.42;9.50;;;7.50;99.90;;;;;;4995385;28;20373;-56
2021/12/19 05:58:46;;;;;;;24.02;10.38;;;7.60;99.90;;;;;;4997154;28;20050;-56
2021/12/19 06:01:12;;;;;;;24.15;8.05;;;7.60;99.90;;;;;;5005502;28;20072;-58
2021/12/19 06:03:37;;;;;;;27.98;7.57;;;7.50;99.90;;;;;;5006907;28;21197;-58
2021/12/19 06:06:03;;;;;;;22.55;6.75;;;7.50;99.90;;;;;;5005231;28;20091;-57
2021/12/19 06:08:29;;;;;;;20.38;5.40;;;7.60;99.90;;;;;;5007426;28;20458;-56
2021/12/19 06:10:55;;;;;;;18.10;5.28;;;7.50;99.90;;;;;;4992182;28;20115;-58
2021/12/19 06:13:20;;;;;;;15.57;4.30;;;7.50;99.90;;;;;;5010353;28;20047;-56
2021/12/19 06:15:50;;;;;;;17.83;5.05;;;7.50;99.90;;;;;;5006888;28;20038;-56
2021/12/19 06:18:16;;;;;;;13.57;4.68;;;7.50;99.90;;;;;;4996228;28;20052;-57
2021/12/19 06:20:42;;;;;;;17.30;4.40;;;7.50;99.90;;;;;;4991418;28;20038;-56
2021/12/19 06:23:09;;;;;;;15.43;3.90;;;7.50;99.90;;;;;;5010471;28;20036;-58
2021/12/19 06:25:35;;;;;;;13.98;4.65;;;7.50;99.90;;;;;;4981046;28;20029;-56
2021/12/19 06:28:01;;;;;;;14.85;4.47;;;7.50;99.90;;;;;;5007305;28;20044;-56
2021/12/19 06:30:27;;;;;;;22.55;5.40;;;7.50;99.90;;;;;;5010456;28;20465;-57
2021/12/19 06:32:54;;;;;;;20.95;4.85;;;7.50;99.90;;;;;;4978969;28;20061;-58
2021/12/19 06:35:22;;;;;;;18.88;4.82;;;7.50;99.90;;;;;;5008567;28;20029;-55
2021/12/19 06:37:49;;;;;;;21.73;5.47;;;7.50;99.90;;;;;;5005472;28;20436;-58
2021/12/19 06:40:20;;;;;;;20.73;5.15;;;7.50;99.90;;;;;;5008376;28;20100;-58
2021/12/19 06:42:46;;;;;;;20.48;5.70;;;7.50;99.90;;;;;;4988037;28;20037;-57
2021/12/19 06:45:13;;;;;;;17.13;5.47;;;7.50;99.90;;;;;;5021658;28;20045;-57
2021/12/19 06:47:39;;;;;;;15.48;5.10;;;7.50;99.90;;;;;;5006982;28;20153;-55
2021/12/19 06:50:06;;;;;;;19.58;5.28;;;7.50;99.90;;;;;;4999578;28;20537;-58
2021/12/19 06:52:32;;;;;;;13.15;5.20;;;7.50;99.90;;;;;;4999378;28;20489;-57
2021/12/19 06:54:58;;;;;;;20.08;6.22;;;7.50;99.90;;;;;;5006461;28;20066;-57
2021/12/19 06:57:24;;;;;;;17.08;5.80;;;7.50;99.90;;;;;;5014489;28;20045;-58
2021/12/19 06:59:49;;;;;;;18.42;5.93;;;7.60;99.90;;;;;;4987876;28;20045;-57
2021/12/19 07:02:16;;;;;;;17.90;6.05;;;7.50;99.90;;;;;;4998190;28;20045;-57
2021/12/19 07:04:44;;;;;;;18.65;5.00;;;7.60;99.90;;;;;;4997659;28;20041;-58
2021/12/19 07:07:10;;;;;;;17.20;5.50;;;7.60;99.90;;;;;;5024317;28;20045;-58
2021/12/19 07:09:36;;;;;;;11.73;4.03;;;7.50;99.90;;;;;;5004313;28;20124;-58
2021/12/19 07:12:02;;;;;;;29.20;5.80;;;7.50;99.90;;;;;;5001310;28;20914;-58
2021/12/19 07:14:28;;;;;;;15.60;3.95;;;7.50;99.90;;;;;;5017168;28;20047;-58
2021/12/19 07:16:54;;;;;;;12.68;4.05;;;7.50;99.90;;;;;;5015802;28;20042;-56
2021/12/19 07:19:20;;;;;;;14.45;3.72;;;7.50;99.90;;;;;;5007693;28;20057;-59
2021/12/19 07:21:45;;;;;;;10.27;3.20;;;7.50;99.90;;;;;;5002254;28;20516;-58
2021/12/19 07:24:11;;;;;;;12.48;3.35;;;7.50;99.90;;;;;;4966359;28;20399;-58
2021/12/19 07:26:37;;;;;;;11.68;3.75;;;7.50;99.90;;;;;;4984443;28;20045;-59
2021/12/19 07:29:03;;;;;;;13.18;3.63;;;7.50;99.90;;;;;;5001695;28;20042;-59
2021/12/19 07:31:31;;;;;;;11.48;3.15;;;7.50;99.90;;;;;;4989052;28;20052;-56
2021/12/19 07:33:57;;;;;;;11.52;3.33;;;7.50;99.90;;;;;;4982109;28;20540;-57
2021/12/19 07:36:26;;;;;;;10.80;3.33;;;7.50;99.90;;;;;;5010641;28;20037;-57
2021/12/19 07:39:06;;;;;;;11.75;2.95;;;7.50;99.90;;;;;;5022607;28;20049;-58
2021/12/19 07:41:32;;;;;;;15.20;3.28;;;7.50;99.90;;;;;;5005223;28;20186;-57
2021/12/19 07:43:58;;;;;;;13.20;3.40;;;7.50;99.90;;;;;;4994671;28;20050;-56
2021/12/19 07:46:24;;;;;;;9.38;2.67;;;7.50;99.90;;;;;;5021685;28;20033;-58
2021/12/19 07:48:49;;;;;;;15.20;3.25;;;7.50;99.90;;;;;;5003615;28;20046;-56
2021/12/19 07:51:15;;;;;;;13.45;3.30;;;7.50;99.90;;;;;;5001328;28;20126;-55
2021/12/19 07:53:41;;;;;;;12.57;3.97;;;7.50;99.90;;;;;;4985927;28;20037;-57
2021/12/19 07:56:07;;;;;;;14.88;4.18;;;7.50;99.90;;;;;;5011908;28;20041;-57
2021/12/19 07:58:32;;;;;;;16.85;4.22;;;7.50;99.90;;;;;;5013204;23;20062;-61
2021/12/19 08:00:58;;;;;;;17.58;4.15;;;7.50;99.90;;;;;;5016636;28;20037;-61
2021/12/19 08:03:24;;;;;;;19.35;4.40;;;7.50;99.90;;;;;;5009079;28;20040;-60
2021/12/19 08:05:50;;;;;;;15.20;4.13;;;7.50;99.90;;;;;;5022136;28;20750;-61
2021/12/19 08:08:21;;;;;;;16.77;3.97;;;7.60;99.90;;;;;;5015921;28;20041;-62
2021/12/19 08:13:14;;;;;;;16.45;4.30;;;7.60;99.90;;;;;;5007490;28;20530;-61
2021/12/19 08:15:39;;;;;;;15.68;4.13;;;7.60;99.90;;;;;;5003971;28;20072;-61
2021/12/19 08:18:06;;;;;;;19.05;4.78;;;7.60;99.90;;;;;;5017458;28;20074;-60
2021/12/19 08:20:33;;;;;;;22.33;4.97;;;7.60;99.90;;;;;;5027342;28;20123;-60
2021/12/19 08:22:59;;;;;;;16.73;4.30;;;7.60;99.90;;;;;;5018115;28;20049;-62
2021/12/19 08:25:26;;;;;;;22.98;6.75;;;7.70;99.90;;;;;;5016884;28;20155;-61
2021/12/19 08:27:53;;;;;;;20.80;4.60;;;7.70;99.90;;;;;;4994011;28;20076;-61
2021/12/19 08:30:20;;;;;;;16.23;6.03;;;7.70;99.90;;;;;;5017684;28;20044;-62
2021/12/19 08:32:46;;;;;;;16.48;4.28;;;7.70;99.90;;;;;;5023502;28;20582;-61
2021/12/19 08:35:12;;;;;;;17.08;4.78;;;7.70;99.90;;;;;;5017487;28;20046;-61
2021/12/19 08:37:39;;;;;;;17.80;5.35;;;7.70;99.90;;;;;;5033645;28;20567;-61
2021/12/19 08:40:08;;;;;;;19.35;4.75;;;7.70;99.90;;;;;;5021269;28;20081;-62
2021/12/19 08:42:34;;;;;;;19.15;4.50;;;7.70;99.90;;;;;;5025524;28;20403;-63
2021/12/19 08:45:00;;;;;;;14.63;4.20;;;7.70;99.90;;;;;;5021915;28;20273;-63
2021/12/19 08:47:27;;;;;;;23.45;5.18;;;7.70;99.90;;;;;;5018626;28;20063;-63
2021/12/19 08:49:52;;;;;;;21.42;4.30;;;7.70;99.90;;;;;;5041972;28;20044;-63
2021/12/19 08:52:18;;;;;;;13.35;4.25;;;7.70;99.90;;;;;;5018985;28;20049;-62
2021/12/19 08:54:44;;;;;;;15.75;3.95;;;7.70;99.90;;;;;;5017161;28;20049;-61
2021/12/19 08:57:10;;;;;;;11.95;3.92;;;7.70;99.90;;;;;;5016001;28;20033;-63
2021/12/19 08:59:35;;;;;;;15.55;3.53;;;7.70;99.90;;;;;;5017090;28;20458;-60
2021/12/19 09:02:02;;;;;;;17.80;3.30;;;7.70;99.90;;;;;;5017105;28;20169;-60
2021/12/19 09:04:31;;;;;;;15.00;3.22;;;7.70;99.90;;;;;;5021817;28;20107;-61
2021/12/19 09:06:58;;;;;;;15.35;4.53;;;7.70;99.90;;;;;;5024385;28;20073;-61
2021/12/19 09:09:24;;;;;;;18.38;3.17;;;7.70;99.90;;;;;;5013852;28;20041;-62
2021/12/19 09:11:50;;;;;;;15.70;3.83;;;7.70;99.90;;;;;;5019795;28;20104;-62
2021/12/19 09:14:15;;;;;;;16.13;3.58;;;7.70;99.90;;;;;;5022400;28;20037;-62
2021/12/19 09:16:41;;;;;;;14.77;3.33;;;7.70;99.90;;;;;;5022277;28;20034;-62
2021/12/19 09:19:07;;;;;;;10.90;3.47;;;7.70;99.90;;;;;;5024227;28;20069;-61
2021/12/19 09:21:33;;;;;;;16.50;3.70;;;7.80;99.90;;;;;;5007141;28;20034;-62
2021/12/19 09:23:59;;;;;;;11.63;2.90;;;7.80;99.90;;;;;;5015394;28;20033;-61
2021/12/19 09:26:24;;;;;;;15.00;3.05;;;7.70;99.90;;;;;;5011118;28;20072;-61
2021/12/19 09:28:50;;;;;;;13.15;3.03;;;7.70;99.90;;;;;;5000106;28;20041;-61
2021/12/19 09:31:15;;;;;;;11.50;3.40;;;7.80;99.90;;;;;;5014062;28;20050;-60
2021/12/19 09:33:41;;;;;;;16.73;3.83;;;7.80;99.90;;;;;;4995136;28;20152;-60
2021/12/19 09:36:07;;;;;;;12.48;3.00;;;7.80;99.90;;;;;;5010709;28;20041;-61
2021/12/19 09:38:34;;;;;;;13.85;3.17;;;7.80;99.90;;;;;;4996763;28;20153;-60
2021/12/19 09:41:11;;;;;;;14.10;3.45;;;7.80;99.90;;;;;;4993271;28;20503;-61
2021/12/19 09:43:42;;;;;;;16.83;3.13;;;7.80;99.90;;;;;;5015667;28;20047;-62
2021/12/19 09:46:12;;;;;;;15.43;3.22;;;7.90;99.90;;;;;;5027656;28;20116;-62
2021/12/19 09:48:39;;;;;;;14.13;3.70;;;7.90;99.90;;;;;;5016794;28;20053;-62
2021/12/19 09:51:06;;;;;;;18.67;4.07;;;7.90;99.90;;;;;;5005881;28;20172;-62
2021/12/19 09:53:32;;;;;;;24.08;4.68;;;7.90;99.90;;;;;;5015101;28;20047;-61
2021/12/19 09:55:58;;;;;;;19.30;3.88;;;7.90;99.90;;;;;;5019809;28;20046;-61
2021/12/19 09:58:23;;;;;;;15.75;3.83;;;7.90;99.90;;;;;;5005429;28;20091;-60
2021/12/19 10:00:53;;;;;;;16.83;4.55;;;8.00;99.90;;;;;;4984910;28;20212;-60
2021/12/19 10:03:19;;;;;;;14.98;3.75;;;8.00;99.90;;;;;;5004573;28;20050;-61
2021/12/19 10:05:45;;;;;;;17.83;4.30;;;8.00;99.90;;;;;;5015270;28;20049;-61
2021/12/19 10:08:11;;;;;;;21.23;4.38;;;8.00;99.90;;;;;;5001110;28;20076;-60
2021/12/19 10:11:01;;;;;;;19.17;5.00;;;8.00;99.90;;;;;;5014583;28;20050;-60
2021/12/19 10:13:35;;;;;;;20.02;4.13;;;8.00;99.90;;;;;;5013387;28;20034;-61
2021/12/19 10:16:00;;;;;;;23.13;4.13;;;8.10;99.90;;;;;;5018846;28;20068;-61
2021/12/19 10:18:26;;;;;;;16.83;3.75;;;8.10;99.90;;;;;;5022867;28;20522;-61
2021/12/19 10:21:00;;;;;;;17.75;4.05;;;8.10;99.90;;;;;;5021095;28;20045;-61
2021/12/19 10:23:28;;;;;;;18.45;3.88;;;8.10;99.90;;;;;;5012431;28;20125;-60
2021/12/19 10:26:03;;;;;;;13.55;3.70;;;8.10;99.90;;;;;;5019249;28;20060;-60
2021/12/19 10:28:30;;;;;;;13.60;3.35;;;8.10;99.90;;;;;;5011512;28;20076;-62
2021/12/19 10:30:59;;;;;;;14.32;4.00;;;8.10;99.90;;;;;;5017208;28;20072;-60
2021/12/19 10:33:31;;;;;;;16.20;3.50;;;8.10;99.90;;;;;;5013238;28;20069;-60
2021/12/19 10:36:03;;;;;;;19.00;4.55;;;8.10;99.90;;;;;;5004988;28;20045;-60
2021/12/19 10:38:38;;;;;;;20.48;3.83;;;8.10;99.90;;;;;;5000083;28;20519;-60
2021/12/19 10:41:25;;;;;;;20.90;5.05;;;8.10;99.90;;;;;;5005465;28;20077;-61
2021/12/19 10:44:03;;;;;;;20.02;3.35;;;8.10;99.90;;;;;;5014569;28;20181;-60
2021/12/19 10:46:35;;;;;;;14.75;5.35;;;8.10;99.90;;;;;;5017691;28;20049;-60
2021/12/19 10:49:02;;;;;;;17.05;3.83;;;8.10;99.90;;;;;;5019609;28;20045;-60
2021/12/19 10:51:30;;;;;;;17.33;3.63;;;8.10;99.90;;;;;;4996893;28;20073;-59
2021/12/19 10:54:00;;;;;;;18.38;3.72;;;8.10;99.90;;;;;;5014027;28;20038;-60
2021/12/19 10:56:31;;;;;;;16.63;4.00;;;8.20;99.90;;;;;;5007350;28;20131;-61
2021/12/19 10:59:08;;;;;;;17.25;3.75;;;8.10;99.90;;;;;;5008490;28;20037;-61
2021/12/19 11:01:35;;;;;;;19.00;3.90;;;8.10;99.90;;;;;;5014119;28;20080;-61
2021/12/19 11:04:08;;;;;;;20.90;4.47;;;8.20;99.90;;;;;;5036048;28;20053;-61
2021/12/19 11:06:41;;;;;;;19.35;3.67;;;8.20;99.90;;;;;;4998514;28;20794;-61
2021/12/19 11:09:19;;;;;;;17.65;4.22;;;8.20;99.90;;;;;;5016809;28;20177;-60
2021/12/19 11:12:20;;;;;;;13.43;2.88;;;8.20;99.90;;;;;;5013674;28;20061;-62
2021/12/19 11:14:48;;;;;;;14.02;2.92;;;8.20;99.90;;;;;;4945252;28;20043;-60
2021/12/19 11:17:16;;;;;;;11.82;2.40;;;8.10;99.90;;;;;;4998948;28;20065;-60
2021/12/19 11:19:43;;;;;;;10.68;2.78;;;8.10;99.90;;;;;;5019647;28;20041;-61
2021/12/19 11:22:11;;;;;;;12.35;2.35;;;8.20;99.90;;;;;;5021578;28;20033;-61
2021/12/19 11:24:37;;;;;;;13.98;3.40;;;8.20;99.90;;;;;;5016485;28;20179;-61
2021/12/19 11:27:05;;;;;;;12.05;2.53;;;8.20;99.90;;;;;;5013601;28;20046;-60
2021/12/19 11:29:31;;;;;;;13.05;2.63;;;8.20;99.90;;;;;;5002147;28;20044;-60
2021/12/19 11:32:01;;;;;;;15.68;2.88;;;8.20;99.90;;;;;;5014512;28;20045;-60
2021/12/19 11:35:00;;;;;;;8.52;2.55;;;8.20;99.90;;;;;;5016339;28;20045;-60
2021/12/19 11:37:45;;;;;;;12.95;3.03;;;8.20;99.90;;;;;;5020118;28;20080;-61
2021/12/19 11:40:16;;;;;;;17.45;3.15;;;8.20;99.90;;;;;;5021625;28;20060;-61
2021/12/19 11:42:42;;;;;;;13.80;3.00;;;8.20;99.90;;;;;;5026334;28;20065;-61
2021/12/19 11:47:55;;;;;;;10.68;2.40;;;8.30;99.90;;;;;;5020323;28;20055;-61
2021/12/19 11:50:30;;;;;;;11.98;3.08;;;8.30;99.90;;;;;;5012382;28;20041;-60
2021/12/19 11:53:07;;;;;;;14.07;2.78;;;8.30;99.90;;;;;;5029532;28;20034;-61
2021/12/19 11:55:34;;;;;;;19.30;3.22;;;8.30;99.90;;;;;;5017899;28;20048;-61
2021/12/19 11:58:11;;;;;;;10.50;2.67;;;8.40;99.90;;;;;;5022671;28;20187;-61
2021/12/19 12:00:40;;;;;;;17.42;2.92;;;8.40;99.90;;;;;;4992860;28;20042;-61
2021/12/19 12:03:27;;;;;;;15.90;2.90;;;8.40;99.90;;;;;;5020372;28;20037;-60
2021/12/19 12:06:13;;;;;;;16.70;2.78;;;8.40;99.90;;;;;;5019177;28;20050;-61
2021/12/19 12:08:38;;;;;;;16.30;3.20;;;8.40;99.90;;;;;;5007392;28;20101;-61
2021/12/19 12:11:04;;;;;;;14.90;3.30;;;8.50;99.90;;;;;;5010717;28;20041;-61
2021/12/19 12:13:38;;;;;;;20.48;4.38;;;8.50;99.90;;;;;;5014759;28;20125;-63
2021/12/19 12:16:33;;;;;;;17.30;3.60;;;8.50;99.90;;;;;;5014894;28;20080;-61
2021/12/19 12:19:01;;;;;;;16.33;3.58;;;8.50;99.90;;;;;;5016469;28;20037;-61
2021/12/19 12:21:33;;;;;;;18.80;3.90;;;8.50;99.90;;;;;;5007799;28;20040;-61
2021/12/19 12:24:11;;;;;;;19.40;3.47;;;8.50;99.90;;;;;;5015414;28;20040;-62
2021/12/19 12:26:45;;;;;;;21.50;3.70;;;8.50;99.90;;;;;;5023100;28;20112;-61
2021/12/19 12:29:12;;;;;;;12.75;3.13;;;8.50;99.90;;;;;;5016421;28;20538;-61
2021/12/19 12:31:41;;;;;;;18.98;3.70;;;8.50;99.90;;;;;;5023000;28;20049;-61
2021/12/19 12:34:13;;;;;;;21.88;3.70;;;8.50;99.90;;;;;;5018139;28;20084;-62
2021/12/19 12:36:39;;;;;;;22.23;3.83;;;8.50;99.90;;;;;;5018672;28;20060;-63
2021/12/19 12:39:14;;;;;;;18.60;3.60;;;8.60;99.90;;;;;;5006037;28;20115;-60
2021/12/19 12:44:11;;;;;;;18.65;4.20;;;8.60;99.90;;;;;;5010000;28;20093;-62
2021/12/19 12:46:37;;;;;;;18.70;3.50;;;8.60;99.90;;;;;;5017739;28;20047;-61
2021/12/19 12:49:08;;;;;;;19.15;3.75;;;8.60;99.90;;;;;;5019967;28;20128;-62
2021/12/19 12:51:39;;;;;;;24.15;5.20;;;8.60;99.90;;;;;;5012355;28;20056;-62
2021/12/19 12:54:22;;;;;;;21.90;3.63;;;8.60;99.90;;;;;;5024528;28;20051;-60
2021/12/19 12:56:57;;;;;;;22.70;5.17;;;8.60;99.90;;;;;;5015266;28;20462;-62
2021/12/19 12:59:28;;;;;;;18.00;3.63;;;8.60;99.90;;;;;;5016430;28;20652;-61
2021/12/19 13:02:13;;;;;;;21.70;3.88;;;8.60;99.90;;;;;;5012647;28;20069;-61
2021/12/19 13:04:41;;;;;;;23.38;3.67;;;8.60;99.90;;;;;;5019574;28;20049;-62
2021/12/19 13:07:12;;;;;;;16.83;3.35;;;8.60;99.90;;;;;;5017486;28;20283;-62
2021/12/19 13:09:43;;;;;;;19.08;3.25;;;8.60;99.90;;;;;;5022096;28;20264;-61
2021/12/19 13:12:12;;;;;;;20.00;3.22;;;8.60;99.90;;;;;;5000890;28;20116;-62
2021/12/19 13:14:48;;;;;;;19.60;3.83;;;8.60;99.90;;;;;;5002013;28;20082;-61
2021/12/19 13:17:32;;;;;;;21.75;4.13;;;8.60;99.90;;;;;;5014807;28;20488;-62
2021/12/19 13:20:01;;;;;;;21.52;3.03;;;8.60;99.90;;;;;;5010400;28;20046;-60
2021/12/19 13:22:46;;;;;;;13.57;3.40;;;8.60;99.90;;;;;;5014002;28;20377;-61
2021/12/19 13:25:22;;;;;;;14.65;3.42;;;8.70;99.90;;;;;;5006305;28;20045;-62
2021/12/19 13:27:52;;;;;;;17.83;3.65;;;8.60;99.90;;;;;;5024451;28;20356;-61
2021/12/19 13:30:25;;;;;;;26.70;4.30;;;8.60;99.90;;;;;;5014322;28;20073;-61
2021/12/19 13:32:55;;;;;;;22.50;3.67;;;8.60;99.90;;;;;;5037373;28;20041;-61
2021/12/19 13:35:28;;;;;;;18.63;4.43;;;8.60;99.90;;;;;;5016442;28;20116;-65
2021/12/19 13:37:57;;;;;;;23.90;4.22;;;8.60;99.90;;;;;;5035081;28;20511;-61
2021/12/19 13:40:32;;;;;;;19.42;4.20;;;8.60;99.90;;;;;;5035124;28;20045;-62
2021/12/19 13:43:04;;;;;;;18.60;4.15;;;8.60;99.90;;;;;;5041364;28;20096;-62
2021/12/19 13:45:38;;;;;;;19.35;3.75;;;8.60;99.90;;;;;;5018859;28;20049;-61
2021/12/19 13:48:29;;;;;;;16.73;3.20;;;8.60;99.90;;;;;;5038597;28;20514;-63
2021/12/19 13:51:05;;;;;;;18.73;3.75;;;8.60;99.90;;;;;;5031284;28;20053;-62
2021/12/19 13:53:34;;;;;;;22.17;3.58;;;8.60;99.90;;;;;;5031960;28;20061;-62
2021/12/19 13:56:07;;;;;;;18.38;3.78;;;8.60;99.90;;;;;;5017650;28;20040;-63
2021/12/19 13:58:36;;;;;;;15.02;3.10;;;8.50;99.90;;;;;;5041943;28;20438;-62
2021/12/19 14:01:16;;;;;;;20.35;3.50;;;8.60;99.90;;;;;;5024099;22;20497;-53
2021/12/19 14:03:54;;;;;;;12.18;2.85;;;8.60;99.90;;;;;;4985911;28;20361;-52
2021/12/19 14:06:31;;;;;;;15.57;3.35;;;8.50;99.90;;;;;;5012393;28;20172;-56
2021/12/19 14:09:00;;;;;;;17.23;2.50;;;8.50;99.90;;;;;;4987828;28;20054;-56
2021/12/19 14:11:27;;;;;;;19.10;3.03;;;8.50;99.90;;;;;;4986719;28;20069;-54
2021/12/19 14:14:12;;;;;;;14.23;2.05;;;8.40;99.90;;;;;;4983183;28;21560;-56
2021/12/19 14:16:40;;;;;;;15.00;2.40;;;8.40;99.90;;;;;;4971489;28;20416;-54